sensor_id;sensor_type;location;lat;lon;timestamp;P1;durP1;ratioP1;P2;durP2;ratioP2
66826;SDS011;53727;45.242;19.796;2023-01-16T00:01:32;31.40;;;21.53;;
66826;SDS011;53727;45.242;19.796;2023-01-16T00:03:58;33.38;;;23.40;;
66826;SDS011;53727;45.242;19.796;2023-01-16T00:06:24;34.45;;;24.00;;
66826;SDS011;53727;45.242;19.796;2023-01-16T00:08:50;43.35;;;30.10;;
66826;SDS011;53727;45.242;19.796;2023-01-16T00:11:16;42.60;;;30.02;;
66826;SDS011;53727;45.242;19.796;2023-01-16T00:13:42;44.40;;;31.55;;
66826;SDS011;53727;45.242;19.796;2023-01-16T00:16:08;47.50;;;32.67;;
66826;SDS011;53727;45.242;19.796;2023-01-16T00:18:38;47.95;;;32.72;;
66826;SDS011;53727;45.242;19.796;2023-01-16T00:21:04;49.35;;;34.88;;
66826;SDS011;53727;45.242;19.796;2023-01-16T00:23:30;44.03;;;31.60;;
66826;SDS011;53727;45.242;19.796;2023-01-16T00:25:56;46.03;;;32.15;;
66826;SDS011;53727;45.242;19.796;2023-01-16T00:28:31;41.67;;;30.70;;
66826;SDS011;53727;45.242;19.796;2023-01-16T00:30:57;43.72;;;29.40;;
66826;SDS011;53727;45.242;19.796;2023-01-16T00:33:23;42.55;;;29.65;;
66826;SDS011;53727;45.242;19.796;2023-01-16T00:35:51;42.28;;;29.00;;
66826;SDS011;53727;45.242;19.796;2023-01-16T00:38:17;50.55;;;33.17;;
66826;SDS011;53727;45.242;19.796;2023-01-16T00:40:43;55.25;;;37.28;;
66826;SDS011;53727;45.242;19.796;2023-01-16T00:43:11;54.50;;;36.67;;
66826;SDS011;53727;45.242;19.796;2023-01-16T00:45:39;51.95;;;35.20;;
66826;SDS011;53727;45.242;19.796;2023-01-16T00:48:06;55.05;;;35.03;;
66826;SDS011;53727;45.242;19.796;2023-01-16T00:50:32;52.97;;;34.83;;
66826;SDS011;53727;45.242;19.796;2023-01-16T00:53:01;50.13;;;35.60;;
66826;SDS011;53727;45.242;19.796;2023-01-16T00:55:27;48.03;;;34.63;;
66826;SDS011;53727;45.242;19.796;2023-01-16T00:57:55;62.67;;;39.53;;
66826;SDS011;53727;45.242;19.796;2023-01-16T01:00:21;67.47;;;42.45;;
66826;SDS011;53727;45.242;19.796;2023-01-16T01:02:48;61.33;;;39.53;;
66826;SDS011;53727;45.242;19.796;2023-01-16T01:05:14;67.57;;;40.50;;
66826;SDS011;53727;45.242;19.796;2023-01-16T01:07:40;60.03;;;38.25;;
66826;SDS011;53727;45.242;19.796;2023-01-16T01:10:07;56.90;;;36.35;;
66826;SDS011;53727;45.242;19.796;2023-01-16T01:12:33;57.53;;;38.03;;
66826;SDS011;53727;45.242;19.796;2023-01-16T01:14:59;54.88;;;35.55;;
66826;SDS011;53727;45.242;19.796;2023-01-16T01:17:28;57.20;;;38.10;;
66826;SDS011;53727;45.242;19.796;2023-01-16T01:19:56;56.63;;;35.35;;
66826;SDS011;53727;45.242;19.796;2023-01-16T01:22:27;53.10;;;34.63;;
66826;SDS011;53727;45.242;19.796;2023-01-16T01:24:53;54.05;;;35.13;;
66826;SDS011;53727;45.242;19.796;2023-01-16T01:27:19;52.30;;;34.75;;
66826;SDS011;53727;45.242;19.796;2023-01-16T01:29:45;49.67;;;34.15;;
66826;SDS011;53727;45.242;19.796;2023-01-16T01:32:11;55.50;;;36.53;;
66826;SDS011;53727;45.242;19.796;2023-01-16T01:34:37;52.88;;;36.10;;
66826;SDS011;53727;45.242;19.796;2023-01-16T01:37:04;54.00;;;37.03;;
66826;SDS011;53727;45.242;19.796;2023-01-16T01:39:33;56.75;;;36.70;;
66826;SDS011;53727;45.242;19.796;2023-01-16T01:41:59;52.60;;;35.60;;
66826;SDS011;53727;45.242;19.796;2023-01-16T01:47:10;50.67;;;34.13;;
66826;SDS011;53727;45.242;19.796;2023-01-16T01:49:39;53.22;;;34.83;;
66826;SDS011;53727;45.242;19.796;2023-01-16T01:52:05;52.80;;;36.00;;
66826;SDS011;53727;45.242;19.796;2023-01-16T01:54:44;52.08;;;35.47;;
66826;SDS011;53727;45.242;19.796;2023-01-16T01:57:15;54.00;;;37.40;;
66826;SDS011;53727;45.242;19.796;2023-01-16T01:59:45;55.95;;;39.10;;
66826;SDS011;53727;45.242;19.796;2023-01-16T02:02:12;57.30;;;39.13;;
66826;SDS011;53727;45.242;19.796;2023-01-16T02:04:42;70.13;;;44.00;;
66826;SDS011;53727;45.242;19.796;2023-01-16T02:07:09;62.10;;;39.55;;
66826;SDS011;53727;45.242;19.796;2023-01-16T02:09:37;58.25;;;37.35;;
66826;SDS011;53727;45.242;19.796;2023-01-16T02:12:07;60.10;;;38.22;;
66826;SDS011;53727;45.242;19.796;2023-01-16T02:14:38;55.97;;;37.08;;
66826;SDS011;53727;45.242;19.796;2023-01-16T02:17:11;55.95;;;35.30;;
66826;SDS011;53727;45.242;19.796;2023-01-16T02:30:56;56.10;;;38.10;;
66826;SDS011;53727;45.242;19.796;2023-01-16T02:35:58;56.90;;;37.17;;
66826;SDS011;53727;45.242;19.796;2023-01-16T02:41:14;56.45;;;37.67;;
66826;SDS011;53727;45.242;19.796;2023-01-16T02:51:36;58.75;;;36.63;;
66826;SDS011;53727;45.242;19.796;2023-01-16T02:54:11;56.72;;;36.78;;
66826;SDS011;53727;45.242;19.796;2023-01-16T02:56:53;51.00;;;35.05;;
66826;SDS011;53727;45.242;19.796;2023-01-16T02:59:22;51.92;;;33.55;;
66826;SDS011;53727;45.242;19.796;2023-01-16T03:01:49;47.88;;;33.42;;
66826;SDS011;53727;45.242;19.796;2023-01-16T03:12:49;53.30;;;32.85;;
66826;SDS011;53727;45.242;19.796;2023-01-16T03:15:27;55.25;;;38.17;;
66826;SDS011;53727;45.242;19.796;2023-01-16T03:18:07;56.83;;;35.72;;
66826;SDS011;53727;45.242;19.796;2023-01-16T03:23:29;53.35;;;36.20;;
66826;SDS011;53727;45.242;19.796;2023-01-16T03:26:01;59.63;;;37.05;;
66826;SDS011;53727;45.242;19.796;2023-01-16T03:39:06;50.17;;;32.78;;
66826;SDS011;53727;45.242;19.796;2023-01-16T03:41:35;60.45;;;37.38;;
66826;SDS011;53727;45.242;19.796;2023-01-16T03:44:07;51.92;;;33.63;;
66826;SDS011;53727;45.242;19.796;2023-01-16T03:46:37;55.80;;;35.35;;
66826;SDS011;53727;45.242;19.796;2023-01-16T03:49:07;53.33;;;34.85;;
66826;SDS011;53727;45.242;19.796;2023-01-16T03:51:37;52.58;;;33.80;;
66826;SDS011;53727;45.242;19.796;2023-01-16T03:59:28;47.15;;;32.55;;
66826;SDS011;53727;45.242;19.796;2023-01-16T04:01:57;50.70;;;32.10;;
66826;SDS011;53727;45.242;19.796;2023-01-16T04:06:53;46.33;;;30.40;;
66826;SDS011;53727;45.242;19.796;2023-01-16T04:12:09;39.92;;;25.90;;
66826;SDS011;53727;45.242;19.796;2023-01-16T04:14:43;42.33;;;28.23;;
66826;SDS011;53727;45.242;19.796;2023-01-16T04:17:13;41.55;;;27.88;;
66826;SDS011;53727;45.242;19.796;2023-01-16T04:19:41;47.65;;;28.00;;
66826;SDS011;53727;45.242;19.796;2023-01-16T04:22:26;43.10;;;31.08;;
66826;SDS011;53727;45.242;19.796;2023-01-16T04:24:53;44.63;;;30.77;;
66826;SDS011;53727;45.242;19.796;2023-01-16T04:27:20;51.63;;;32.97;;
66826;SDS011;53727;45.242;19.796;2023-01-16T04:29:47;49.78;;;32.33;;
66826;SDS011;53727;45.242;19.796;2023-01-16T04:32:13;44.75;;;29.80;;
66826;SDS011;53727;45.242;19.796;2023-01-16T04:34:39;41.25;;;24.88;;
66826;SDS011;53727;45.242;19.796;2023-01-16T04:37:08;30.40;;;20.63;;
66826;SDS011;53727;45.242;19.796;2023-01-16T04:39:35;35.17;;;21.65;;
66826;SDS011;53727;45.242;19.796;2023-01-16T04:42:06;28.10;;;19.02;;
66826;SDS011;53727;45.242;19.796;2023-01-16T04:44:35;26.15;;;17.50;;
66826;SDS011;53727;45.242;19.796;2023-01-16T04:47:01;26.65;;;17.00;;
66826;SDS011;53727;45.242;19.796;2023-01-16T04:49:27;28.85;;;18.55;;
66826;SDS011;53727;45.242;19.796;2023-01-16T04:51:55;26.00;;;16.65;;
66826;SDS011;53727;45.242;19.796;2023-01-16T04:54:21;22.45;;;14.20;;
66826;SDS011;53727;45.242;19.796;2023-01-16T04:56:47;19.10;;;14.07;;
66826;SDS011;53727;45.242;19.796;2023-01-16T04:59:21;24.00;;;16.27;;
66826;SDS011;53727;45.242;19.796;2023-01-16T05:01:47;21.50;;;14.98;;
66826;SDS011;53727;45.242;19.796;2023-01-16T05:04:13;19.38;;;12.50;;
66826;SDS011;53727;45.242;19.796;2023-01-16T05:06:40;17.67;;;10.73;;
66826;SDS011;53727;45.242;19.796;2023-01-16T05:09:08;17.65;;;11.07;;
66826;SDS011;53727;45.242;19.796;2023-01-16T05:11:37;16.75;;;11.02;;
66826;SDS011;53727;45.242;19.796;2023-01-16T05:14:03;15.93;;;11.40;;
66826;SDS011;53727;45.242;19.796;2023-01-16T05:16:35;15.93;;;11.25;;
66826;SDS011;53727;45.242;19.796;2023-01-16T05:19:02;19.17;;;11.57;;
66826;SDS011;53727;45.242;19.796;2023-01-16T05:21:28;16.33;;;11.95;;
66826;SDS011;53727;45.242;19.796;2023-01-16T05:23:54;18.65;;;11.70;;
66826;SDS011;53727;45.242;19.796;2023-01-16T05:26:22;18.48;;;12.00;;
66826;SDS011;53727;45.242;19.796;2023-01-16T05:28:48;16.85;;;12.52;;
66826;SDS011;53727;45.242;19.796;2023-01-16T05:31:15;17.25;;;12.52;;
66826;SDS011;53727;45.242;19.796;2023-01-16T05:33:41;20.30;;;12.82;;
66826;SDS011;53727;45.242;19.796;2023-01-16T05:36:12;20.95;;;12.48;;
66826;SDS011;53727;45.242;19.796;2023-01-16T05:38:38;19.48;;;12.85;;
66826;SDS011;53727;45.242;19.796;2023-01-16T05:41:11;21.13;;;13.50;;
66826;SDS011;53727;45.242;19.796;2023-01-16T05:43:42;25.40;;;15.80;;
66826;SDS011;53727;45.242;19.796;2023-01-16T05:46:08;27.52;;;16.65;;
66826;SDS011;53727;45.242;19.796;2023-01-16T05:48:37;35.17;;;18.67;;
66826;SDS011;53727;45.242;19.796;2023-01-16T05:51:04;39.40;;;21.08;;
66826;SDS011;53727;45.242;19.796;2023-01-16T05:53:30;44.15;;;26.48;;
66826;SDS011;53727;45.242;19.796;2023-01-16T05:56:08;36.33;;;19.88;;
66826;SDS011;53727;45.242;19.796;2023-01-16T05:58:34;27.10;;;16.05;;
66826;SDS011;53727;45.242;19.796;2023-01-16T06:01:00;26.00;;;16.27;;
66826;SDS011;53727;45.242;19.796;2023-01-16T06:03:28;25.38;;;15.95;;
66826;SDS011;53727;45.242;19.796;2023-01-16T06:05:54;26.83;;;16.30;;
66826;SDS011;53727;45.242;19.796;2023-01-16T06:08:23;27.20;;;15.40;;
66826;SDS011;53727;45.242;19.796;2023-01-16T06:10:49;21.60;;;14.82;;
66826;SDS011;53727;45.242;19.796;2023-01-16T06:13:15;25.20;;;14.93;;
66826;SDS011;53727;45.242;19.796;2023-01-16T06:15:42;27.15;;;17.02;;
66826;SDS011;53727;45.242;19.796;2023-01-16T06:18:08;24.38;;;16.15;;
66826;SDS011;53727;45.242;19.796;2023-01-16T06:20:34;23.73;;;17.35;;
66826;SDS011;53727;45.242;19.796;2023-01-16T06:23:00;22.30;;;16.08;;
66826;SDS011;53727;45.242;19.796;2023-01-16T06:25:31;25.38;;;16.33;;
66826;SDS011;53727;45.242;19.796;2023-01-16T06:27:57;25.85;;;17.42;;
66826;SDS011;53727;45.242;19.796;2023-01-16T06:30:23;26.48;;;17.17;;
66826;SDS011;53727;45.242;19.796;2023-01-16T06:32:59;26.98;;;17.98;;
66826;SDS011;53727;45.242;19.796;2023-01-16T06:35:30;29.33;;;19.58;;
66826;SDS011;53727;45.242;19.796;2023-01-16T06:37:56;25.50;;;15.98;;
66826;SDS011;53727;45.242;19.796;2023-01-16T06:40:29;29.30;;;18.38;;
66826;SDS011;53727;45.242;19.796;2023-01-16T06:42:55;29.50;;;17.83;;
66826;SDS011;53727;45.242;19.796;2023-01-16T06:45:21;28.35;;;15.40;;
66826;SDS011;53727;45.242;19.796;2023-01-16T06:47:52;23.75;;;14.65;;
66826;SDS011;53727;45.242;19.796;2023-01-16T06:50:19;20.45;;;13.65;;
66826;SDS011;53727;45.242;19.796;2023-01-16T06:52:45;15.70;;;11.02;;
66826;SDS011;53727;45.242;19.796;2023-01-16T06:55:11;17.75;;;11.52;;
66826;SDS011;53727;45.242;19.796;2023-01-16T06:57:38;18.98;;;11.25;;
66826;SDS011;53727;45.242;19.796;2023-01-16T07:00:07;16.48;;;10.70;;
66826;SDS011;53727;45.242;19.796;2023-01-16T07:02:33;21.63;;;11.70;;
66826;SDS011;53727;45.242;19.796;2023-01-16T07:05:04;19.10;;;12.82;;
66826;SDS011;53727;45.242;19.796;2023-01-16T07:07:33;22.73;;;14.00;;
66826;SDS011;53727;45.242;19.796;2023-01-16T07:09:59;18.25;;;12.77;;
66826;SDS011;53727;45.242;19.796;2023-01-16T07:12:30;21.42;;;13.93;;
66826;SDS011;53727;45.242;19.796;2023-01-16T07:14:56;22.27;;;15.75;;
66826;SDS011;53727;45.242;19.796;2023-01-16T07:17:43;23.52;;;14.52;;
66826;SDS011;53727;45.242;19.796;2023-01-16T07:20:30;21.73;;;14.57;;
66826;SDS011;53727;45.242;19.796;2023-01-16T07:23:19;28.92;;;16.33;;
66826;SDS011;53727;45.242;19.796;2023-01-16T07:25:49;27.73;;;18.40;;
66826;SDS011;53727;45.242;19.796;2023-01-16T07:28:18;34.40;;;20.55;;
66826;SDS011;53727;45.242;19.796;2023-01-16T07:30:48;33.55;;;18.15;;
66826;SDS011;53727;45.242;19.796;2023-01-16T07:33:14;27.67;;;17.85;;
66826;SDS011;53727;45.242;19.796;2023-01-16T07:35:43;26.80;;;16.25;;
66826;SDS011;53727;45.242;19.796;2023-01-16T07:38:11;27.65;;;14.60;;
66826;SDS011;53727;45.242;19.796;2023-01-16T07:40:37;22.45;;;14.90;;
66826;SDS011;53727;45.242;19.796;2023-01-16T07:43:06;31.63;;;21.45;;
66826;SDS011;53727;45.242;19.796;2023-01-16T07:45:32;25.55;;;17.23;;
66826;SDS011;53727;45.242;19.796;2023-01-16T07:48:00;20.42;;;14.32;;
66826;SDS011;53727;45.242;19.796;2023-01-16T07:50:27;22.05;;;13.95;;
66826;SDS011;53727;45.242;19.796;2023-01-16T07:52:53;34.72;;;16.00;;
66826;SDS011;53727;45.242;19.796;2023-01-16T07:55:19;26.60;;;18.27;;
66826;SDS011;53727;45.242;19.796;2023-01-16T07:57:45;27.48;;;17.45;;
66826;SDS011;53727;45.242;19.796;2023-01-16T08:00:18;24.77;;;14.48;;
66826;SDS011;53727;45.242;19.796;2023-01-16T08:02:44;19.58;;;13.48;;
66826;SDS011;53727;45.242;19.796;2023-01-16T08:05:20;22.23;;;14.00;;
66826;SDS011;53727;45.242;19.796;2023-01-16T08:07:48;20.48;;;13.35;;
66826;SDS011;53727;45.242;19.796;2023-01-16T08:10:15;34.38;;;20.30;;
66826;SDS011;53727;45.242;19.796;2023-01-16T08:12:41;30.95;;;18.90;;
66826;SDS011;53727;45.242;19.796;2023-01-16T08:15:11;25.48;;;17.48;;
66826;SDS011;53727;45.242;19.796;2023-01-16T08:17:38;22.27;;;15.80;;
66826;SDS011;53727;45.242;19.796;2023-01-16T08:20:16;22.67;;;14.70;;
66826;SDS011;53727;45.242;19.796;2023-01-16T08:22:45;18.70;;;13.27;;
66826;SDS011;53727;45.242;19.796;2023-01-16T08:25:17;18.65;;;12.05;;
66826;SDS011;53727;45.242;19.796;2023-01-16T08:27:43;18.38;;;11.15;;
66826;SDS011;53727;45.242;19.796;2023-01-16T08:30:10;13.88;;;9.35;;
66826;SDS011;53727;45.242;19.796;2023-01-16T08:32:36;18.73;;;12.00;;
66826;SDS011;53727;45.242;19.796;2023-01-16T08:35:07;11.63;;;7.72;;
66826;SDS011;53727;45.242;19.796;2023-01-16T08:37:34;14.02;;;8.05;;
66826;SDS011;53727;45.242;19.796;2023-01-16T08:40:00;12.50;;;8.77;;
66826;SDS011;53727;45.242;19.796;2023-01-16T08:42:26;13.18;;;9.05;;
66826;SDS011;53727;45.242;19.796;2023-01-16T08:45:13;12.57;;;8.15;;
66826;SDS011;53727;45.242;19.796;2023-01-16T08:47:58;11.60;;;8.40;;
66826;SDS011;53727;45.242;19.796;2023-01-16T08:50:46;13.65;;;8.30;;
66826;SDS011;53727;45.242;19.796;2023-01-16T08:53:32;11.27;;;7.15;;
66826;SDS011;53727;45.242;19.796;2023-01-16T08:55:58;10.88;;;7.30;;
66826;SDS011;53727;45.242;19.796;2023-01-16T08:58:24;12.73;;;8.02;;
66826;SDS011;53727;45.242;19.796;2023-01-16T09:00:53;12.27;;;7.57;;
66826;SDS011;53727;45.242;19.796;2023-01-16T09:03:24;13.85;;;8.48;;
66826;SDS011;53727;45.242;19.796;2023-01-16T09:05:52;14.85;;;9.43;;
66826;SDS011;53727;45.242;19.796;2023-01-16T09:08:18;15.20;;;9.82;;
66826;SDS011;53727;45.242;19.796;2023-01-16T09:10:49;17.85;;;10.98;;
66826;SDS011;53727;45.242;19.796;2023-01-16T09:13:38;16.05;;;10.65;;
66826;SDS011;53727;45.242;19.796;2023-01-16T09:16:14;22.15;;;10.07;;
66826;SDS011;53727;45.242;19.796;2023-01-16T09:18:40;14.93;;;10.05;;
66826;SDS011;53727;45.242;19.796;2023-01-16T09:21:08;16.75;;;10.27;;
66826;SDS011;53727;45.242;19.796;2023-01-16T09:23:37;18.58;;;10.00;;
66826;SDS011;53727;45.242;19.796;2023-01-16T09:26:03;15.70;;;10.68;;
66826;SDS011;53727;45.242;19.796;2023-01-16T09:28:29;18.45;;;10.88;;
66826;SDS011;53727;45.242;19.796;2023-01-16T09:30:57;14.23;;;10.57;;
66826;SDS011;53727;45.242;19.796;2023-01-16T09:33:24;18.25;;;9.32;;
66826;SDS011;53727;45.242;19.796;2023-01-16T09:35:50;14.73;;;8.20;;
66826;SDS011;53727;45.242;19.796;2023-01-16T09:38:18;12.00;;;7.35;;
66826;SDS011;53727;45.242;19.796;2023-01-16T09:40:51;9.43;;;6.18;;
66826;SDS011;53727;45.242;19.796;2023-01-16T09:46:10;12.30;;;7.05;;
66826;SDS011;53727;45.242;19.796;2023-01-16T09:51:13;15.30;;;7.22;;
66826;SDS011;53727;45.242;19.796;2023-01-16T09:53:45;11.60;;;7.32;;
66826;SDS011;53727;45.242;19.796;2023-01-16T09:56:31;11.00;;;7.47;;
66826;SDS011;53727;45.242;19.796;2023-01-16T09:59:40;14.68;;;9.30;;
66826;SDS011;53727;45.242;19.796;2023-01-16T10:02:27;19.52;;;9.13;;
66826;SDS011;53727;45.242;19.796;2023-01-16T10:04:57;15.65;;;9.65;;
66826;SDS011;53727;45.242;19.796;2023-01-16T10:10:03;15.20;;;11.50;;
66826;SDS011;53727;45.242;19.796;2023-01-16T10:12:33;21.88;;;12.00;;
66826;SDS011;53727;45.242;19.796;2023-01-16T10:15:12;16.55;;;10.82;;
66826;SDS011;53727;45.242;19.796;2023-01-16T10:20:30;23.58;;;11.13;;
66826;SDS011;53727;45.242;19.796;2023-01-16T10:31:16;26.33;;;13.82;;
66826;SDS011;53727;45.242;19.796;2023-01-16T10:34:05;25.92;;;13.02;;
66826;SDS011;53727;45.242;19.796;2023-01-16T10:36:42;18.25;;;12.90;;
66826;SDS011;53727;45.242;19.796;2023-01-16T10:39:11;24.92;;;13.57;;
66826;SDS011;53727;45.242;19.796;2023-01-16T10:45:19;19.75;;;14.02;;
66826;SDS011;53727;45.242;19.796;2023-01-16T10:48:04;20.58;;;13.73;;
66826;SDS011;53727;45.242;19.796;2023-01-16T10:50:52;14.55;;;9.35;;
66826;SDS011;53727;45.242;19.796;2023-01-16T10:53:18;12.40;;;9.13;;
66826;SDS011;53727;45.242;19.796;2023-01-16T10:55:44;12.50;;;8.68;;
66826;SDS011;53727;45.242;19.796;2023-01-16T10:58:30;12.32;;;8.75;;
66826;SDS011;53727;45.242;19.796;2023-01-16T11:01:14;14.13;;;9.45;;
66826;SDS011;53727;45.242;19.796;2023-01-16T11:03:50;14.55;;;8.80;;
66826;SDS011;53727;45.242;19.796;2023-01-16T11:08:51;13.57;;;8.07;;
66826;SDS011;53727;45.242;19.796;2023-01-16T11:11:18;15.00;;;8.38;;
66826;SDS011;53727;45.242;19.796;2023-01-16T11:20:20;19.42;;;10.07;;
66826;SDS011;53727;45.242;19.796;2023-01-16T11:22:59;22.33;;;13.02;;
66826;SDS011;53727;45.242;19.796;2023-01-16T11:25:28;21.65;;;13.35;;
66826;SDS011;53727;45.242;19.796;2023-01-16T11:28:00;16.00;;;11.95;;
66826;SDS011;53727;45.242;19.796;2023-01-16T11:30:30;26.48;;;12.60;;
66826;SDS011;53727;45.242;19.796;2023-01-16T11:32:57;18.20;;;11.48;;
66826;SDS011;53727;45.242;19.796;2023-01-16T11:35:41;17.95;;;11.38;;
66826;SDS011;53727;45.242;19.796;2023-01-16T11:38:12;17.77;;;13.20;;
66826;SDS011;53727;45.242;19.796;2023-01-16T11:40:43;22.50;;;11.88;;
66826;SDS011;53727;45.242;19.796;2023-01-16T11:43:15;20.17;;;11.90;;
66826;SDS011;53727;45.242;19.796;2023-01-16T11:45:59;16.23;;;10.73;;
66826;SDS011;53727;45.242;19.796;2023-01-16T11:48:43;17.85;;;10.98;;
66826;SDS011;53727;45.242;19.796;2023-01-16T11:51:17;17.02;;;10.32;;
66826;SDS011;53727;45.242;19.796;2023-01-16T11:53:44;18.98;;;11.05;;
66826;SDS011;53727;45.242;19.796;2023-01-16T12:01:40;24.02;;;13.35;;
66826;SDS011;53727;45.242;19.796;2023-01-16T12:04:26;24.63;;;15.15;;
66826;SDS011;53727;45.242;19.796;2023-01-16T12:07:07;20.23;;;13.80;;
66826;SDS011;53727;45.242;19.796;2023-01-16T12:09:42;34.17;;;20.27;;
66826;SDS011;53727;45.242;19.796;2023-01-16T12:15:07;22.55;;;14.10;;
66826;SDS011;53727;45.242;19.796;2023-01-16T12:17:41;17.88;;;11.30;;
66826;SDS011;53727;45.242;19.796;2023-01-16T12:20:14;16.95;;;11.27;;
66826;SDS011;53727;45.242;19.796;2023-01-16T12:25:39;18.75;;;10.45;;
66826;SDS011;53727;45.242;19.796;2023-01-16T12:28:18;17.38;;;10.20;;
66826;SDS011;53727;45.242;19.796;2023-01-16T12:39:12;26.20;;;11.93;;
66826;SDS011;53727;45.242;19.796;2023-01-16T12:55:12;14.25;;;10.35;;
66826;SDS011;53727;45.242;19.796;2023-01-16T13:05:18;14.65;;;10.13;;
66826;SDS011;53727;45.242;19.796;2023-01-16T13:07:50;15.05;;;9.93;;
66826;SDS011;53727;45.242;19.796;2023-01-16T13:10:22;16.33;;;10.68;;
66826;SDS011;53727;45.242;19.796;2023-01-16T13:13:13;17.25;;;11.13;;
66826;SDS011;53727;45.242;19.796;2023-01-16T13:15:47;18.13;;;11.52;;
66826;SDS011;53727;45.242;19.796;2023-01-16T13:18:23;15.68;;;10.55;;
66826;SDS011;53727;45.242;19.796;2023-01-16T13:20:55;13.77;;;10.07;;
66826;SDS011;53727;45.242;19.796;2023-01-16T13:23:25;15.93;;;10.27;;
66826;SDS011;53727;45.242;19.796;2023-01-16T13:25:53;18.65;;;10.65;;
66826;SDS011;53727;45.242;19.796;2023-01-16T13:31:02;19.60;;;10.07;;
66826;SDS011;53727;45.242;19.796;2023-01-16T13:33:31;16.58;;;10.23;;
66826;SDS011;53727;45.242;19.796;2023-01-16T13:36:07;15.55;;;10.98;;
66826;SDS011;53727;45.242;19.796;2023-01-16T13:46:34;16.60;;;11.95;;
66826;SDS011;53727;45.242;19.796;2023-01-16T13:49:02;15.13;;;10.07;;
66826;SDS011;53727;45.242;19.796;2023-01-16T13:51:41;14.45;;;9.75;;
66826;SDS011;53727;45.242;19.796;2023-01-16T13:54:07;16.73;;;10.13;;
66826;SDS011;53727;45.242;19.796;2023-01-16T13:56:37;13.90;;;10.20;;
66826;SDS011;53727;45.242;19.796;2023-01-16T13:59:06;21.98;;;11.35;;
66826;SDS011;53727;45.242;19.796;2023-01-16T14:06:47;15.63;;;10.48;;
66826;SDS011;53727;45.242;19.796;2023-01-16T14:17:09;19.63;;;13.48;;
66826;SDS011;53727;45.242;19.796;2023-01-16T14:19:36;19.08;;;12.05;;
66826;SDS011;53727;45.242;19.796;2023-01-16T14:22:02;17.10;;;11.38;;
66826;SDS011;53727;45.242;19.796;2023-01-16T14:24:41;20.33;;;11.32;;
66826;SDS011;53727;45.242;19.796;2023-01-16T14:27:14;16.80;;;11.38;;
66826;SDS011;53727;45.242;19.796;2023-01-16T14:29:45;16.27;;;10.80;;
66826;SDS011;53727;45.242;19.796;2023-01-16T14:39:57;17.40;;;11.27;;
66826;SDS011;53727;45.242;19.796;2023-01-16T14:45:18;16.88;;;11.77;;
66826;SDS011;53727;45.242;19.796;2023-01-16T14:50:54;18.00;;;12.43;;
66826;SDS011;53727;45.242;19.796;2023-01-16T14:53:41;18.48;;;12.10;;
66826;SDS011;53727;45.242;19.796;2023-01-16T14:56:27;17.33;;;13.40;;
66826;SDS011;53727;45.242;19.796;2023-01-16T14:58:57;18.60;;;13.05;;
66826;SDS011;53727;45.242;19.796;2023-01-16T15:01:32;24.38;;;14.82;;
66826;SDS011;53727;45.242;19.796;2023-01-16T15:04:18;17.35;;;13.15;;
66826;SDS011;53727;45.242;19.796;2023-01-16T15:06:46;20.20;;;15.27;;
66826;SDS011;53727;45.242;19.796;2023-01-16T15:09:16;24.17;;;15.05;;
66826;SDS011;53727;45.242;19.796;2023-01-16T15:11:56;20.08;;;14.40;;
66826;SDS011;53727;45.242;19.796;2023-01-16T15:14:25;21.50;;;14.70;;
66826;SDS011;53727;45.242;19.796;2023-01-16T15:17:06;21.92;;;15.32;;
66826;SDS011;53727;45.242;19.796;2023-01-16T15:22:45;20.67;;;14.47;;
66826;SDS011;53727;45.242;19.796;2023-01-16T15:25:34;28.88;;;15.93;;
66826;SDS011;53727;45.242;19.796;2023-01-16T15:30:27;22.15;;;16.60;;
66826;SDS011;53727;45.242;19.796;2023-01-16T15:32:57;25.15;;;17.15;;
66826;SDS011;53727;45.242;19.796;2023-01-16T15:35:43;23.00;;;15.77;;
66826;SDS011;53727;45.242;19.796;2023-01-16T15:38:11;20.38;;;14.63;;
66826;SDS011;53727;45.242;19.796;2023-01-16T15:40:38;22.80;;;15.35;;
66826;SDS011;53727;45.242;19.796;2023-01-16T15:43:04;25.05;;;16.67;;
66826;SDS011;53727;45.242;19.796;2023-01-16T15:45:59;24.10;;;16.70;;
66826;SDS011;53727;45.242;19.796;2023-01-16T15:48:59;23.42;;;16.63;;
66826;SDS011;53727;45.242;19.796;2023-01-16T15:51:30;21.47;;;15.33;;
66826;SDS011;53727;45.242;19.796;2023-01-16T15:53:56;23.45;;;15.27;;
66826;SDS011;53727;45.242;19.796;2023-01-16T15:56:35;32.65;;;22.60;;
66826;SDS011;53727;45.242;19.796;2023-01-16T15:59:04;27.80;;;18.10;;
66826;SDS011;53727;45.242;19.796;2023-01-16T16:01:31;31.67;;;21.15;;
66826;SDS011;53727;45.242;19.796;2023-01-16T16:04:01;24.92;;;16.85;;
66826;SDS011;53727;45.242;19.796;2023-01-16T16:06:28;23.35;;;15.73;;
66826;SDS011;53727;45.242;19.796;2023-01-16T16:08:55;23.38;;;15.60;;
66826;SDS011;53727;45.242;19.796;2023-01-16T16:11:25;21.73;;;15.60;;
66826;SDS011;53727;45.242;19.796;2023-01-16T16:17:21;19.15;;;13.73;;
66826;SDS011;53727;45.242;19.796;2023-01-16T16:25:36;14.75;;;10.77;;
66826;SDS011;53727;45.242;19.796;2023-01-16T16:28:04;22.35;;;14.00;;
66826;SDS011;53727;45.242;19.796;2023-01-16T16:30:30;19.40;;;13.68;;
66826;SDS011;53727;45.242;19.796;2023-01-16T16:32:59;27.00;;;17.23;;
66826;SDS011;53727;45.242;19.796;2023-01-16T16:35:34;17.17;;;13.10;;
66826;SDS011;53727;45.242;19.796;2023-01-16T16:38:17;19.13;;;11.73;;
66826;SDS011;53727;45.242;19.796;2023-01-16T16:51:32;17.73;;;12.70;;
66826;SDS011;53727;45.242;19.796;2023-01-16T16:54:04;17.15;;;12.02;;
66826;SDS011;53727;45.242;19.796;2023-01-16T16:56:32;17.92;;;12.75;;
66826;SDS011;53727;45.242;19.796;2023-01-16T16:58:59;15.60;;;10.98;;
66826;SDS011;53727;45.242;19.796;2023-01-16T17:01:32;15.55;;;11.55;;
66826;SDS011;53727;45.242;19.796;2023-01-16T17:04:00;22.33;;;14.93;;
66826;SDS011;53727;45.242;19.796;2023-01-16T17:06:30;22.48;;;15.80;;
66826;SDS011;53727;45.242;19.796;2023-01-16T17:08:58;23.35;;;15.40;;
66826;SDS011;53727;45.242;19.796;2023-01-16T17:11:24;25.38;;;18.85;;
66826;SDS011;53727;45.242;19.796;2023-01-16T17:13:53;28.90;;;19.88;;
66826;SDS011;53727;45.242;19.796;2023-01-16T17:16:26;26.23;;;17.60;;
66826;SDS011;53727;45.242;19.796;2023-01-16T17:18:59;23.63;;;15.57;;
66826;SDS011;53727;45.242;19.796;2023-01-16T17:21:25;19.38;;;13.85;;
66826;SDS011;53727;45.242;19.796;2023-01-16T17:23:51;25.23;;;17.27;;
66826;SDS011;53727;45.242;19.796;2023-01-16T17:26:17;23.15;;;15.77;;
66826;SDS011;53727;45.242;19.796;2023-01-16T17:28:46;25.60;;;17.25;;
66826;SDS011;53727;45.242;19.796;2023-01-16T17:31:12;24.33;;;17.45;;
66826;SDS011;53727;45.242;19.796;2023-01-16T17:33:39;21.05;;;15.60;;
66826;SDS011;53727;45.242;19.796;2023-01-16T17:36:05;31.70;;;18.73;;
66826;SDS011;53727;45.242;19.796;2023-01-16T17:38:35;30.40;;;16.73;;
66826;SDS011;53727;45.242;19.796;2023-01-16T17:41:14;40.13;;;23.80;;
66826;SDS011;53727;45.242;19.796;2023-01-16T17:43:42;24.48;;;16.10;;
66826;SDS011;53727;45.242;19.796;2023-01-16T17:46:29;19.73;;;14.85;;